sensor_id;sensor_type;location;lat;lon;timestamp;pressure;altitude;pressure_sealevel;temperature;humidity
68941;BME280;55982;51.476;7.552;2023-02-21T00:00:51;100187.72;;;7.82;100.00
68941;BME280;55982;51.476;7.552;2023-02-21T00:03:35;100188.59;;;7.81;100.00
68941;BME280;55982;51.476;7.552;2023-02-21T00:06:19;100192.97;;;7.79;100.00
68941;BME280;55982;51.476;7.552;2023-02-21T00:09:02;100206.88;;;7.78;100.00
68941;BME280;55982;51.476;7.552;2023-02-21T00:11:46;100195.56;;;7.79;100.00
68941;BME280;55982;51.476;7.552;2023-02-21T00:14:30;100198.25;;;7.76;100.00
68941;BME280;55982;51.476;7.552;2023-02-21T00:17:14;100190.47;;;7.73;100.00
68941;BME280;55982;51.476;7.552;2023-02-21T00:19:58;100193.03;;;7.76;100.00
68941;BME280;55982;51.476;7.552;2023-02-21T00:22:43;100195.66;;;7.73;100.00
68941;BME280;55982;51.476;7.552;2023-02-21T00:25:27;100187.84;;;7.73;100.00
68941;BME280;55982;51.476;7.552;2023-02-21T00:28:11;100179.25;;;7.68;100.00
68941;BME280;55982;51.476;7.552;2023-02-21T00:30:55;100200.03;;;7.71;100.00
68941;BME280;55982;51.476;7.552;2023-02-21T00:33:38;100196.63;;;7.67;100.00
68941;BME280;55982;51.476;7.552;2023-02-21T00:36:22;100187.97;;;7.65;100.00
68941;BME280;55982;51.476;7.552;2023-02-21T00:39:06;100194.88;;;7.68;100.00
68941;BME280;55982;51.476;7.552;2023-02-21T00:41:50;100187.94;;;7.67;100.00
68941;BME280;55982;51.476;7.552;2023-02-21T00:44:34;100187.06;;;7.68;100.00
68941;BME280;55982;51.476;7.552;2023-02-21T00:47:17;100177.59;;;7.64;100.00
68941;BME280;55982;51.476;7.552;2023-02-21T00:50:01;100182.03;;;7.59;100.00
68941;BME280;55982;51.476;7.552;2023-02-21T00:52:45;100185.50;;;7.58;100.00
68941;BME280;55982;51.476;7.552;2023-02-21T00:55:29;100183.78;;;7.57;100.00
68941;BME280;55982;51.476;7.552;2023-02-21T00:58:12;100188.06;;;7.61;100.00
68941;BME280;55982;51.476;7.552;2023-02-21T01:00:56;100181.13;;;7.60;100.00
68941;BME280;55982;51.476;7.552;2023-02-21T01:03:40;100185.53;;;7.56;100.00
68941;BME280;55982;51.476;7.552;2023-02-21T01:06:24;100177.69;;;7.58;100.00
68941;BME280;55982;51.476;7.552;2023-02-21T01:09:08;100179.41;;;7.59;100.00
68941;BME280;55982;51.476;7.552;2023-02-21T01:11:52;100176.88;;;7.54;100.00
68941;BME280;55982;51.476;7.552;2023-02-21T01:14:36;100177.72;;;7.56;100.00
68941;BME280;55982;51.476;7.552;2023-02-21T01:17:20;100180.25;;;7.59;100.00
68941;BME280;55982;51.476;7.552;2023-02-21T01:20:04;100177.75;;;7.55;100.00
68941;BME280;55982;51.476;7.552;2023-02-21T01:22:48;100182.19;;;7.47;100.00
68941;BME280;55982;51.476;7.552;2023-02-21T01:25:32;100177.75;;;7.55;100.00
68941;BME280;55982;51.476;7.552;2023-02-21T01:28:16;100177.78;;;7.52;100.00
68941;BME280;55982;51.476;7.552;2023-02-21T01:31:00;100177.03;;;7.45;100.00
68941;BME280;55982;51.476;7.552;2023-02-21T01:33:44;100176.19;;;7.41;100.00
68941;BME280;55982;51.476;7.552;2023-02-21T01:36:28;100176.09;;;7.48;100.00
68941;BME280;55982;51.476;7.552;2023-02-21T01:39:12;100168.34;;;7.45;100.00
68941;BME280;55982;51.476;7.552;2023-02-21T01:41:56;100167.44;;;7.46;100.00
68941;BME280;55982;51.476;7.552;2023-02-21T01:44:41;100163.13;;;7.45;100.00
68941;BME280;55982;51.476;7.552;2023-02-21T01:47:25;100172.66;;;7.46;100.00
68941;BME280;55982;51.476;7.552;2023-02-21T01:50:20;100163.91;;;7.50;100.00
68941;BME280;55982;51.476;7.552;2023-02-21T01:53:06;100173.50;;;7.48;100.00
68941;BME280;55982;51.476;7.552;2023-02-21T01:55:51;100174.38;;;7.47;100.00
68941;BME280;55982;51.476;7.552;2023-02-21T01:58:37;100152.78;;;7.40;100.00
68941;BME280;55982;51.476;7.552;2023-02-21T02:01:27;100157.16;;;7.39;100.00
68941;BME280;55982;51.476;7.552;2023-02-21T02:04:12;100162.34;;;7.39;100.00
68941;BME280;55982;51.476;7.552;2023-02-21T02:06:56;100164.97;;;7.38;100.00
68941;BME280;55982;51.476;7.552;2023-02-21T02:09:40;100164.94;;;7.41;100.00
68941;BME280;55982;51.476;7.552;2023-02-21T02:17:19;100169.22;;;7.45;100.00
68941;BME280;55982;51.476;7.552;2023-02-21T02:25:29;100169.22;;;7.45;100.00
68941;BME280;55982;51.476;7.552;2023-02-21T02:28:07;100164.84;;;7.46;100.00
68941;BME280;55982;51.476;7.552;2023-02-21T02:36:14;100169.25;;;7.40;100.00
68941;BME280;55982;51.476;7.552;2023-02-21T02:38:59;100167.44;;;7.46;100.00
68941;BME280;55982;51.476;7.552;2023-02-21T02:41:32;100166.59;;;7.45;100.00
68941;BME280;55982;51.476;7.552;2023-02-21T02:46:30;100161.44;;;7.42;100.00
68941;BME280;55982;51.476;7.552;2023-02-21T02:51:25;100150.13;;;7.45;100.00
68941;BME280;55982;51.476;7.552;2023-02-21T02:53:51;100148.38;;;7.43;100.00
68941;BME280;55982;51.476;7.552;2023-02-21T02:56:16;100148.38;;;7.43;100.00
68941;BME280;55982;51.476;7.552;2023-02-21T03:03:49;100144.09;;;7.41;100.00
68941;BME280;55982;51.476;7.552;2023-02-21T03:06:19;100147.56;;;7.40;100.00
68941;BME280;55982;51.476;7.552;2023-02-21T03:11:16;100145.06;;;7.35;100.00
68941;BME280;55982;51.476;7.552;2023-02-21T03:16:46;100150.28;;;7.32;100.00
68941;BME280;55982;51.476;7.552;2023-02-21T03:19:45;100151.97;;;7.36;100.00
68941;BME280;55982;51.476;7.552;2023-02-21T03:22:04;100150.28;;;7.35;100.00
68941;BME280;55982;51.476;7.552;2023-02-21T03:24:31;100151.09;;;7.39;100.00
68941;BME280;55982;51.476;7.552;2023-02-21T03:26:59;100156.31;;;7.37;100.00
68941;BME280;55982;51.476;7.552;2023-02-21T03:29:27;100151.94;;;7.39;100.00
68941;BME280;55982;51.476;7.552;2023-02-21T03:31:57;100155.41;;;7.38;100.00
68941;BME280;55982;51.476;7.552;2023-02-21T03:34:34;100154.56;;;7.39;100.00
68941;BME280;55982;51.476;7.552;2023-02-21T03:37:00;100148.44;;;7.40;100.00
68941;BME280;55982;51.476;7.552;2023-02-21T03:39:25;100144.13;;;7.38;100.00
68941;BME280;55982;51.476;7.552;2023-02-21T03:41:50;100146.75;;;7.39;100.00
68941;BME280;55982;51.476;7.552;2023-02-21T03:44:15;100149.25;;;7.44;100.00
68941;BME280;55982;51.476;7.552;2023-02-21T03:46:42;100137.97;;;7.43;100.00
68941;BME280;55982;51.476;7.552;2023-02-21T03:49:07;100145.88;;;7.39;100.00
68941;BME280;55982;51.476;7.552;2023-02-21T03:51:32;100138.13;;;7.34;100.00
68941;BME280;55982;51.476;7.552;2023-02-21T03:53:58;100135.50;;;7.36;100.00
68941;BME280;55982;51.476;7.552;2023-02-21T03:56:23;100140.63;;;7.40;100.00
68941;BME280;55982;51.476;7.552;2023-02-21T03:58:48;100148.44;;;7.40;100.00
68941;BME280;55982;51.476;7.552;2023-02-21T04:01:14;100148.44;;;7.40;100.00
68941;BME280;55982;51.476;7.552;2023-02-21T04:03:39;100141.47;;;7.43;100.00
68941;BME280;55982;51.476;7.552;2023-02-21T04:06:04;100141.53;;;7.39;100.00
68941;BME280;55982;51.476;7.552;2023-02-21T04:08:30;100148.44;;;7.40;100.00
68941;BME280;55982;51.476;7.552;2023-02-21T04:10:55;100137.97;;;7.43;100.00
68941;BME280;55982;51.476;7.552;2023-02-21T04:13:20;100137.97;;;7.43;100.00
68941;BME280;55982;51.476;7.552;2023-02-21T04:15:47;100130.16;;;7.45;100.00
68941;BME280;55982;51.476;7.552;2023-02-21T04:18:12;100136.28;;;7.43;100.00
68941;BME280;55982;51.476;7.552;2023-02-21T04:20:38;100138.03;;;7.40;100.00
68941;BME280;55982;51.476;7.552;2023-02-21T04:23:05;100144.91;;;7.45;100.00
68941;BME280;55982;51.476;7.552;2023-02-21T04:25:31;100139.72;;;7.45;100.00
68941;BME280;55982;51.476;7.552;2023-02-21T04:27:56;100137.94;;;7.47;100.00
68941;BME280;55982;51.476;7.552;2023-02-21T04:30:21;100134.53;;;7.43;100.00
68941;BME280;55982;51.476;7.552;2023-02-21T04:32:48;100138.81;;;7.47;100.00
68941;BME280;55982;51.476;7.552;2023-02-21T04:35:14;100138.88;;;7.43;100.00
68941;BME280;55982;51.476;7.552;2023-02-21T04:37:39;100137.09;;;7.45;100.00
68941;BME280;55982;51.476;7.552;2023-02-21T04:40:04;100134.44;;;7.48;100.00
68941;BME280;55982;51.476;7.552;2023-02-21T04:42:30;100137.94;;;7.47;100.00
68941;BME280;55982;51.476;7.552;2023-02-21T04:44:55;100143.16;;;7.47;100.00
68941;BME280;55982;51.476;7.552;2023-02-21T04:47:20;100132.69;;;7.50;100.00
68941;BME280;55982;51.476;7.552;2023-02-21T04:49:46;100130.97;;;7.49;100.00
68941;BME280;55982;51.476;7.552;2023-02-21T04:52:15;100129.22;;;7.51;100.00
68941;BME280;55982;51.476;7.552;2023-02-21T04:54:41;100136.13;;;7.52;100.00
68941;BME280;55982;51.476;7.552;2023-02-21T04:57:06;100133.53;;;7.50;100.00
68941;BME280;55982;51.476;7.552;2023-02-21T04:59:31;100135.38;;;7.45;100.00
68941;BME280;55982;51.476;7.552;2023-02-21T05:01:57;100133.59;;;7.47;100.00
68941;BME280;55982;51.476;7.552;2023-02-21T05:04:23;100130.16;;;7.43;100.00
68941;BME280;55982;51.476;7.552;2023-02-21T05:06:48;100139.66;;;7.48;100.00
68941;BME280;55982;51.476;7.552;2023-02-21T05:09:14;100137.97;;;7.43;100.00
68941;BME280;55982;51.476;7.552;2023-02-21T05:11:39;100137.13;;;7.41;100.00
68941;BME280;55982;51.476;7.552;2023-02-21T05:14:05;100145.00;;;7.38;100.00
68941;BME280;55982;51.476;7.552;2023-02-21T05:16:30;100145.00;;;7.38;100.00
68941;BME280;55982;51.476;7.552;2023-02-21T05:18:55;100151.09;;;7.37;100.00
68941;BME280;55982;51.476;7.552;2023-02-21T05:21:21;100149.38;;;7.36;100.00
68941;BME280;55982;51.476;7.552;2023-02-21T05:23:46;100145.88;;;7.39;100.00
68941;BME280;55982;51.476;7.552;2023-02-21T05:26:22;100157.16;;;7.39;100.00
68941;BME280;55982;51.476;7.552;2023-02-21T05:28:48;100151.97;;;7.36;100.00
68941;BME280;55982;51.476;7.552;2023-02-21T05:31:14;100150.28;;;7.35;100.00
68941;BME280;55982;51.476;7.552;2023-02-21T05:33:39;100147.59;;;7.38;100.00
68941;BME280;55982;51.476;7.552;2023-02-21T05:36:04;100153.59;;;7.43;100.00
68941;BME280;55982;51.476;7.552;2023-02-21T05:38:30;100143.19;;;7.43;100.00
68941;BME280;55982;51.476;7.552;2023-02-21T05:40:55;100147.56;;;7.43;100.00
68941;BME280;55982;51.476;7.552;2023-02-21T05:43:20;100146.69;;;7.43;100.00
68941;BME280;55982;51.476;7.552;2023-02-21T05:45:46;100146.75;;;7.39;100.00
68941;BME280;55982;51.476;7.552;2023-02-21T05:48:11;100147.53;;;7.41;100.00
68941;BME280;55982;51.476;7.552;2023-02-21T05:50:36;100151.03;;;7.42;100.00
68941;BME280;55982;51.476;7.552;2023-02-21T05:53:03;100144.06;;;7.43;100.00
68941;BME280;55982;51.476;7.552;2023-02-21T05:55:29;100149.28;;;7.43;100.00
68941;BME280;55982;51.476;7.552;2023-02-21T05:57:54;100150.06;;;7.48;100.00
68941;BME280;55982;51.476;7.552;2023-02-21T06:00:21;100148.44;;;7.40;100.00
68941;BME280;55982;51.476;7.552;2023-02-21T06:02:48;100146.69;;;7.43;100.00
68941;BME280;55982;51.476;7.552;2023-02-21T06:05:13;100140.59;;;7.42;100.00
68941;BME280;55982;51.476;7.552;2023-02-21T06:07:39;100146.72;;;7.41;100.00
68941;BME280;55982;51.476;7.552;2023-02-21T06:10:04;100138.03;;;7.40;100.00
68941;BME280;55982;51.476;7.552;2023-02-21T06:12:29;100131.06;;;7.43;100.00
68941;BME280;55982;51.476;7.552;2023-02-21T06:14:55;100137.94;;;7.47;100.00
68941;BME280;55982;51.476;7.552;2023-02-21T06:17:20;100125.84;;;7.43;100.00
68941;BME280;55982;51.476;7.552;2023-02-21T06:19:46;100128.41;;;7.46;100.00
68941;BME280;55982;51.476;7.552;2023-02-21T06:22:11;100119.78;;;7.42;100.00
68941;BME280;55982;51.476;7.552;2023-02-21T06:24:36;100122.31;;;7.47;100.00
68941;BME280;55982;51.476;7.552;2023-02-21T06:27:01;100125.84;;;7.43;100.00
68941;BME280;55982;51.476;7.552;2023-02-21T06:29:27;100111.94;;;7.43;100.00
68941;BME280;55982;51.476;7.552;2023-02-21T06:31:58;100117.16;;;7.45;100.00
68941;BME280;55982;51.476;7.552;2023-02-21T06:34:24;100117.13;;;7.47;100.00
68941;BME280;55982;51.476;7.552;2023-02-21T06:36:50;100120.59;;;7.46;100.00
68941;BME280;55982;51.476;7.552;2023-02-21T06:39:16;100121.47;;;7.46;100.00
68941;BME280;55982;51.476;7.552;2023-02-21T06:41:41;100124.03;;;7.48;100.00
68941;BME280;55982;51.476;7.552;2023-02-21T06:44:06;100120.56;;;7.49;100.00
68941;BME280;55982;51.476;7.552;2023-02-21T06:46:32;100118.81;;;7.49;100.00
68941;BME280;55982;51.476;7.552;2023-02-21T06:49:00;100131.75;;;7.54;100.00
68941;BME280;55982;51.476;7.552;2023-02-21T06:51:25;100130.03;;;7.53;100.00
68941;BME280;55982;51.476;7.552;2023-02-21T06:53:54;100127.44;;;7.53;100.00
68941;BME280;55982;51.476;7.552;2023-02-21T06:56:19;100120.50;;;7.52;100.00
68941;BME280;55982;51.476;7.552;2023-02-21T06:58:44;100130.09;;;7.48;100.00
68941;BME280;55982;51.476;7.552;2023-02-21T07:01:10;100131.84;;;7.48;100.00
68941;BME280;55982;51.476;7.552;2023-02-21T07:03:37;100130.09;;;7.48;100.00
68941;BME280;55982;51.476;7.552;2023-02-21T07:06:03;100132.78;;;7.43;100.00
68941;BME280;55982;51.476;7.552;2023-02-21T07:08:28;100140.59;;;7.42;100.00
68941;BME280;55982;51.476;7.552;2023-02-21T07:10:53;100134.44;;;7.48;100.00
68941;BME280;55982;51.476;7.552;2023-02-21T07:13:19;100129.28;;;7.46;100.00
68941;BME280;55982;51.476;7.552;2023-02-21T07:15:44;100125.78;;;7.49;100.00
68941;BME280;55982;51.476;7.552;2023-02-21T07:18:10;100134.44;;;7.48;100.00
68941;BME280;55982;51.476;7.552;2023-02-21T07:20:35;100131.88;;;7.46;100.00
68941;BME280;55982;51.476;7.552;2023-02-21T07:23:01;100133.50;;;7.55;100.00
68941;BME280;55982;51.476;7.552;2023-02-21T07:25:26;100134.34;;;7.54;100.00
68941;BME280;55982;51.476;7.552;2023-02-21T07:27:51;100133.50;;;7.52;100.00
68941;BME280;55982;51.476;7.552;2023-02-21T07:30:17;100137.78;;;7.56;100.00
68941;BME280;55982;51.476;7.552;2023-02-21T07:32:42;100124.00;;;7.51;100.00
68941;BME280;55982;51.476;7.552;2023-02-21T07:35:09;100129.16;;;7.54;100.00
68941;BME280;55982;51.476;7.552;2023-02-21T07:37:35;100135.22;;;7.54;100.00
68941;BME280;55982;51.476;7.552;2023-02-21T07:40:01;100130.81;;;7.58;100.00
68941;BME280;55982;51.476;7.552;2023-02-21T07:42:26;100141.19;;;7.61;100.00
68941;BME280;55982;51.476;7.552;2023-02-21T07:44:57;100142.03;;;7.61;100.00
68941;BME280;55982;51.476;7.552;2023-02-21T07:47:23;100137.75;;;7.59;100.00
68941;BME280;55982;51.476;7.552;2023-02-21T07:49:49;100143.78;;;7.62;100.00
68941;BME280;55982;51.476;7.552;2023-02-21T07:52:14;100141.06;;;7.67;100.00
68941;BME280;55982;51.476;7.552;2023-02-21T07:54:40;100139.38;;;7.66;100.00
68941;BME280;55982;51.476;7.552;2023-02-21T07:57:05;100141.03;;;7.70;100.00
68941;BME280;55982;51.476;7.552;2023-02-21T07:59:31;100138.34;;;7.76;100.00
68941;BME280;55982;51.476;7.552;2023-02-21T08:01:56;100138.34;;;7.74;100.00
68941;BME280;55982;51.476;7.552;2023-02-21T08:04:21;100135.66;;;7.79;100.00
68941;BME280;55982;51.476;7.552;2023-02-21T08:06:48;100146.84;;;7.84;100.00
68941;BME280;55982;51.476;7.552;2023-02-21T08:09:13;100133.81;;;7.87;100.00
68941;BME280;55982;51.476;7.552;2023-02-21T08:11:39;100138.94;;;7.90;100.00
68941;BME280;55982;51.476;7.552;2023-02-21T08:14:04;100137.06;;;7.98;100.00
68941;BME280;55982;51.476;7.552;2023-02-21T08:16:29;100131.81;;;8.01;100.00
68941;BME280;55982;51.476;7.552;2023-02-21T08:18:55;100130.06;;;8.03;100.00
68941;BME280;55982;51.476;7.552;2023-02-21T08:21:20;100136.88;;;8.10;100.00
68941;BME280;55982;51.476;7.552;2023-02-21T08:23:45;100140.34;;;8.09;100.00
68941;BME280;55982;51.476;7.552;2023-02-21T08:26:11;100130.69;;;8.15;100.00
68941;BME280;55982;51.476;7.552;2023-02-21T08:28:36;100132.41;;;8.15;100.00
68941;BME280;55982;51.476;7.552;2023-02-21T08:31:01;100136.78;;;8.13;100.00
68941;BME280;55982;51.476;7.552;2023-02-21T08:33:27;100133.25;;;8.17;100.00
68941;BME280;55982;51.476;7.552;2023-02-21T08:35:52;100128.03;;;8.17;100.00
68941;BME280;55982;51.476;7.552;2023-02-21T08:38:17;100135.03;;;8.15;100.00
68941;BME280;55982;51.476;7.552;2023-02-21T08:40:43;100122.78;;;8.20;100.00
68941;BME280;55982;51.476;7.552;2023-02-21T08:43:09;100121.06;;;8.19;100.00
68941;BME280;55982;51.476;7.552;2023-02-21T08:45:34;100129.81;;;8.15;100.00
68941;BME280;55982;51.476;7.552;2023-02-21T08:47:59;100134.03;;;8.22;100.00
68941;BME280;55982;51.476;7.552;2023-02-21T08:50:25;100119.47;;;8.12;100.00
68941;BME280;55982;51.476;7.552;2023-02-21T08:52:51;100127.28;;;8.12;100.00
68941;BME280;55982;51.476;7.552;2023-02-21T08:55:17;100133.25;;;8.17;100.00
68941;BME280;55982;51.476;7.552;2023-02-21T08:57:43;100134.97;;;8.18;100.00
68941;BME280;55982;51.476;7.552;2023-02-21T09:00:09;100127.88;;;8.26;100.00
68941;BME280;55982;51.476;7.552;2023-02-21T09:02:37;100135.81;;;8.20;100.00
68941;BME280;55982;51.476;7.552;2023-02-21T09:05:27;100136.69;;;8.19;100.00
68941;BME280;55982;51.476;7.552;2023-02-21T09:07:51;100134.28;;;8.08;100.00
68941;BME280;55982;51.476;7.552;2023-02-21T09:10:19;100134.28;;;8.08;100.00
68941;BME280;55982;51.476;7.552;2023-02-21T09:12:45;100140.19;;;8.18;100.00
68941;BME280;55982;51.476;7.552;2023-02-21T09:15:13;100143.66;;;8.17;100.00
68941;BME280;55982;51.476;7.552;2023-02-21T09:17:38;100131.69;;;8.07;100.00
68941;BME280;55982;51.476;7.552;2023-02-21T09:20:05;100133.44;;;8.08;100.00
68941;BME280;55982;51.476;7.552;2023-02-21T09:22:30;100139.56;;;8.04;100.00
68941;BME280;55982;51.476;7.552;2023-02-21T09:24:56;100134.53;;;7.95;100.00
68941;BME280;55982;51.476;7.552;2023-02-21T09:27:21;100138.81;;;7.99;100.00
68941;BME280;55982;51.476;7.552;2023-02-21T09:30:01;100134.44;;;7.99;100.00
68941;BME280;55982;51.476;7.552;2023-02-21T09:32:26;100137.13;;;7.95;100.00
68941;BME280;55982;51.476;7.552;2023-02-21T09:34:52;100141.56;;;7.90;100.00
68941;BME280;55982;51.476;7.552;2023-02-21T09:37:18;100134.44;;;8.01;100.00
68941;BME280;55982;51.476;7.552;2023-02-21T09:39:43;100138.75;;;8.02;100.00
68941;BME280;55982;51.476;7.552;2023-02-21T09:42:09;100147.28;;;8.10;100.00
68941;BME280;55982;51.476;7.552;2023-02-21T09:44:38;100147.22;;;8.13;100.00
68941;BME280;55982;51.476;7.552;2023-02-21T09:47:04;100143.56;;;8.23;100.00
68941;BME280;55982;51.476;7.552;2023-02-21T09:49:35;100148.78;;;8.23;100.00
68941;BME280;55982;51.476;7.552;2023-02-21T09:52:02;100139.38;;;8.16;100.00
68941;BME280;55982;51.476;7.552;2023-02-21T09:54:34;100142.69;;;8.22;100.00
68941;BME280;55982;51.476;7.552;2023-02-21T09:57:03;100148.00;;;8.16;100.00
68941;BME280;55982;51.476;7.552;2023-02-21T09:59:28;100141.81;;;8.25;100.00
68941;BME280;55982;51.476;7.552;2023-02-21T10:07:17;100143.38;;;8.35;100.00
68941;BME280;55982;51.476;7.552;2023-02-21T10:09:51;100145.84;;;8.43;100.00
68941;BME280;55982;51.476;7.552;2023-02-21T10:17:32;100137.28;;;8.35;100.00
68941;BME280;55982;51.476;7.552;2023-02-21T10:20:03;100141.59;;;8.37;100.00
68941;BME280;55982;51.476;7.552;2023-02-21T10:22:33;100138.72;;;8.51;100.00
68941;BME280;55982;51.476;7.552;2023-02-21T10:25:00;100137.84;;;8.50;100.00
68941;BME280;55982;51.476;7.552;2023-02-21T10:27:26;100146.06;;;8.30;100.00
68941;BME280;55982;51.476;7.552;2023-02-21T10:32:19;100148.75;;;8.26;100.00
68941;BME280;55982;51.476;7.552;2023-02-21T10:34:45;100153.00;;;8.30;100.00
68941;BME280;55982;51.476;7.552;2023-02-21T10:39:54;100146.97;;;8.28;100.00
68941;BME280;55982;51.476;7.552;2023-02-21T10:42:40;100150.38;;;8.33;100.00
68941;BME280;55982;51.476;7.552;2023-02-21T10:45:07;100152.84;;;8.39;100.00
68941;BME280;55982;51.476;7.552;2023-02-21T10:47:40;100153.69;;;8.41;100.00
68941;BME280;55982;51.476;7.552;2023-02-21T10:50:10;100150.19;;;8.42;100.00
68941;BME280;55982;51.476;7.552;2023-02-21T10:52:46;100155.47;;;8.39;100.00
68941;BME280;55982;51.476;7.552;2023-02-21T10:55:19;100158.22;;;8.32;100.00
68941;BME280;55982;51.476;7.552;2023-02-21T10:57:45;100148.63;;;8.32;100.00
68941;BME280;55982;51.476;7.552;2023-02-21T11:00:32;100152.13;;;8.31;100.00
68941;BME280;55982;51.476;7.552;2023-02-21T11:03:03;100153.06;;;8.27;100.00
68941;BME280;55982;51.476;7.552;2023-02-21T11:05:30;100148.63;;;8.32;100.00
68941;BME280;55982;51.476;7.552;2023-02-21T11:07:57;100148.50;;;8.38;100.00
68941;BME280;55982;51.476;7.552;2023-02-21T11:10:26;100145.03;;;8.39;100.00
68941;BME280;55982;51.476;7.552;2023-02-21T11:13:14;100143.16;;;8.47;100.00
68941;BME280;55982;51.476;7.552;2023-02-21T11:15:37;100141.31;;;8.52;100.00
68941;BME280;55982;51.476;7.552;2023-02-21T11:18:10;100144.44;;;8.69;100.00
68941;BME280;55982;51.476;7.552;2023-02-21T11:20:37;100133.91;;;8.72;100.00
68941;BME280;55982;51.476;7.552;2023-02-21T11:23:02;100130.34;;;8.76;100.00
68941;BME280;55982;51.476;7.552;2023-02-21T11:25:31;100137.56;;;8.65;100.00
68941;BME280;55982;51.476;7.552;2023-02-21T11:28:16;100142.75;;;8.65;100.00
68941;BME280;55982;51.476;7.552;2023-02-21T11:33:13;100139.31;;;8.63;100.00
68941;BME280;55982;51.476;7.552;2023-02-21T11:35:45;100133.91;;;8.72;100.00
68941;BME280;55982;51.476;7.552;2023-02-21T11:38:31;100135.44;;;8.82;100.00
68941;BME280;55982;51.476;7.552;2023-02-21T11:41:00;100129.34;;;8.83;100.00
68941;BME280;55982;51.476;7.552;2023-02-21T11:43:31;100123.22;;;8.84;100.00
68941;BME280;55982;51.476;7.552;2023-02-21T11:46:04;100130.22;;;8.82;100.00
68941;BME280;55982;51.476;7.552;2023-02-21T11:48:36;100125.50;;;8.99;100.00
68941;BME280;55982;51.476;7.552;2023-02-21T11:51:04;100123.31;;;9.19;100.00
68941;BME280;55982;51.476;7.552;2023-02-21T11:53:33;100117.50;;;9.08;100.00
68941;BME280;55982;51.476;7.552;2023-02-21T11:56:06;100112.41;;;9.02;100.00
68941;BME280;55982;51.476;7.552;2023-02-21T12:01:09;100107.91;;;9.46;100.00
68941;BME280;55982;51.476;7.552;2023-02-21T12:09:01;100095.84;;;9.40;100.00
68941;BME280;55982;51.476;7.552;2023-02-21T12:14:18;100089.13;;;9.32;100.00
68941;BME280;55982;51.476;7.552;2023-02-21T12:19:39;100078.06;;;9.56;100.00
68941;BME280;55982;51.476;7.552;2023-02-21T12:44:59;100040.91;;;11.52;100.00
68941;BME280;55982;51.476;7.552;2023-02-21T12:57:49;100032.50;;;10.88;100.00
68941;BME280;55982;51.476;7.552;2023-02-21T13:02:57;100018.16;;;10.72;100.00
68941;BME280;55982;51.476;7.552;2023-02-21T13:08:01;100014.19;;;11.15;100.00
68941;BME280;55982;51.476;7.552;2023-02-21T13:10:51;100010.50;;;11.22;100.00
68941;BME280;55982;51.476;7.552;2023-02-21T13:13:16;100011.53;;;11.42;100.00
68941;BME280;55982;51.476;7.552;2023-02-21T13:15:43;100005.53;;;11.13;100.00
68941;BME280;55982;51.476;7.552;2023-02-21T13:18:30;100005.66;;;11.10;100.00
68941;BME280;55982;51.476;7.552;2023-02-21T13:23:48;100011.38;;;10.94;100.00
68941;BME280;55982;51.476;7.552;2023-02-21T13:28:52;100006.97;;;11.23;100.00
68941;BME280;55982;51.476;7.552;2023-02-21T13:31:21;99994.50;;;11.03;100.00
68941;BME280;55982;51.476;7.552;2023-02-21T13:33:51;99994.06;;;10.90;100.00
68941;BME280;55982;51.476;7.552;2023-02-21T13:38:55;99992.13;;;10.95;100.00
68941;BME280;55982;51.476;7.552;2023-02-21T13:41:23;99989.94;;;11.10;100.00
68941;BME280;55982;51.476;7.552;2023-02-21T13:43:50;99978.34;;;11.43;100.00
68941;BME280;55982;51.476;7.552;2023-02-21T13:51:47;99979.69;;;11.54;100.00
68941;BME280;55982;51.476;7.552;2023-02-21T13:54:13;99986.56;;;11.57;100.00
68941;BME280;55982;51.476;7.552;2023-02-21T13:56:44;99984.13;;;11.26;100.00
68941;BME280;55982;51.476;7.552;2023-02-21T13:59:45;99985.56;;;11.10;100.00
68941;BME280;55982;51.476;7.552;2023-02-21T14:02:19;99975.69;;;10.92;100.00
68941;BME280;55982;51.476;7.552;2023-02-21T14:07:37;99973.13;;;10.63;100.00
68941;BME280;55982;51.476;7.552;2023-02-21T14:10:21;99975.91;;;10.58;100.00
68941;BME280;55982;51.476;7.552;2023-02-21T14:12:55;99968.75;;;10.63;100.00
68941;BME280;55982;51.476;7.552;2023-02-21T14:15:22;99976.69;;;10.60;100.00
68941;BME280;55982;51.476;7.552;2023-02-21T14:17:49;99966.50;;;10.51;100.00
68941;BME280;55982;51.476;7.552;2023-02-21T14:20:17;99976.78;;;10.28;100.00
68941;BME280;55982;51.476;7.552;2023-02-21T14:22:44;99966.88;;;10.10;100.00
68941;BME280;55982;51.476;7.552;2023-02-21T14:27:37;99971.03;;;10.17;100.00
68941;BME280;55982;51.476;7.552;2023-02-21T14:32:35;99966.44;;;10.25;100.00
68941;BME280;55982;51.476;7.552;2023-02-21T15:01:20;99962.66;;;10.04;100.00
68941;BME280;55982;51.476;7.552;2023-02-21T15:03:55;99955.53;;;9.79;100.00
68941;BME280;55982;51.476;7.552;2023-02-21T15:06:22;99955.44;;;9.82;100.00
68941;BME280;55982;51.476;7.552;2023-02-21T15:08:48;99963.06;;;9.91;100.00
68941;BME280;55982;51.476;7.552;2023-02-21T15:13:45;99952.88;;;9.80;100.00
68941;BME280;55982;51.476;7.552;2023-02-21T15:16:11;99956.91;;;9.92;100.00
68941;BME280;55982;51.476;7.552;2023-02-21T15:18:37;99954.63;;;9.81;100.00
68941;BME280;55982;51.476;7.552;2023-02-21T15:23:34;99951.34;;;9.73;100.00
68941;BME280;55982;51.476;7.552;2023-02-21T15:26:07;99957.06;;;9.86;100.00
68941;BME280;55982;51.476;7.552;2023-02-21T15:28:39;99958.97;;;9.81;100.00
68941;BME280;55982;51.476;7.552;2023-02-21T15:31:05;99953.03;;;9.74;100.00
68941;BME280;55982;51.476;7.552;2023-02-21T15:33:41;99952.75;;;9.85;100.00
68941;BME280;55982;51.476;7.552;2023-02-21T15:36:11;99951.94;;;9.83;100.00
68941;BME280;55982;51.476;7.552;2023-02-21T15:41:18;99957.22;;;9.81;100.00
68941;BME280;55982;51.476;7.552;2023-02-21T15:46:39;99950.88;;;9.90;100.00